AZU2905 SBCF-SBRJ
Flight info
| Callsign | AZU2905 |
|---|---|
| Flight time | N/A |
| Altitude | 28000 |
| Route | MAVGU UZ3 TOKIM |
| Aircraft | A20N/M-SDE2E3FGHIRWXY/LB1 |
Departure
| Time | 2026-05-04 15:16 |
|---|---|
| Airport | Tancredo Neves International Airport (SBCF) |
Arrival
| Time | N/A |
|---|---|
| Airport | Santos Dumont Airport (SBRJ) |
| Time | Latitude | Longitude | Altitude | Speed | Heading |
|---|---|---|---|---|---|
| 2026-05-04 14:21 | -19.62831 | -43.96826 | 2779 ft | 0 kts | 50° |
| 2026-05-04 14:56 | -19.62841 | -43.96840 | 2757 ft | 4 kts | 45° |
| 2026-05-04 14:56 | -19.62862 | -43.96858 | 2757 ft | 4 kts | 26° |
| 2026-05-04 14:57 | -19.62869 | -43.96861 | 2757 ft | 4 kts | 17° |
| 2026-05-04 14:57 | -19.62889 | -43.96863 | 2754 ft | 3 kts | 324° |
| 2026-05-04 14:57 | -19.62896 | -43.96858 | 2755 ft | 0 kts | 320° |
| 2026-05-04 15:06 | -19.62886 | -43.96866 | 2755 ft | 4 kts | 319° |
| 2026-05-04 15:07 | -19.62806 | -43.96940 | 2754 ft | 11 kts | 319° |
| 2026-05-04 15:07 | -19.62785 | -43.97021 | 2753 ft | 13 kts | 262° |
| 2026-05-04 15:07 | -19.62832 | -43.97096 | 2755 ft | 10 kts | 236° |
| 2026-05-04 15:07 | -19.62833 | -43.97138 | 2753 ft | 3 kts | 295° |
| 2026-05-04 15:08 | -19.62828 | -43.97146 | 2756 ft | 0 kts | 301° |
| 2026-05-04 15:08 | -19.62820 | -43.97158 | 2756 ft | 4 kts | 311° |
| 2026-05-04 15:08 | -19.62815 | -43.97163 | 2753 ft | 4 kts | 315° |
| 2026-05-04 15:09 | -19.62799 | -43.97178 | 2753 ft | 2 kts | 318° |
| 2026-05-04 15:09 | -19.62791 | -43.97187 | 2753 ft | 1 kts | 317° |
| 2026-05-04 15:09 | -19.62782 | -43.97195 | 2753 ft | 4 kts | 318° |
| 2026-05-04 15:10 | -19.62716 | -43.97254 | 2755 ft | 13 kts | 319° |
| 2026-05-04 15:10 | -19.62650 | -43.97314 | 2752 ft | 13 kts | 319° |
| 2026-05-04 15:11 | -19.62582 | -43.97379 | 2752 ft | 13 kts | 319° |
| 2026-05-04 15:11 | -19.62515 | -43.97441 | 2752 ft | 12 kts | 319° |
| 2026-05-04 15:11 | -19.62454 | -43.97497 | 2752 ft | 12 kts | 319° |
| 2026-05-04 15:11 | -19.62393 | -43.97553 | 2754 ft | 11 kts | 318° |
| 2026-05-04 15:12 | -19.62337 | -43.97605 | 2754 ft | 10 kts | 319° |
| 2026-05-04 15:12 | -19.62287 | -43.97656 | 2752 ft | 8 kts | 298° |
| 2026-05-04 15:12 | -19.62296 | -43.97710 | 2752 ft | 7 kts | 236° |
| 2026-05-04 15:12 | -19.62305 | -43.97720 | 2754 ft | 0 kts | 228° |
| 2026-05-04 15:13 | -19.62305 | -43.97721 | 2754 ft | 1 kts | 228° |
| 2026-05-04 15:13 | -19.62345 | -43.97768 | 2752 ft | 14 kts | 228° |
| 2026-05-04 15:13 | -19.62379 | -43.97794 | 2751 ft | 4 kts | 184° |
| 2026-05-04 15:13 | -19.62407 | -43.97766 | 2751 ft | 5 kts | 145° |
| 2026-05-04 15:14 | -19.62410 | -43.97762 | 2751 ft | 0 kts | 139° |
| 2026-05-04 15:14 | -19.62430 | -43.97743 | 2751 ft | 20 kts | 139° |
| 2026-05-04 15:14 | -19.62719 | -43.97479 | 2751 ft | 88 kts | 139° |
| 2026-05-04 15:15 | -19.63322 | -43.96922 | 2752 ft | 140 kts | 138° |
| 2026-05-04 15:15 | -19.64147 | -43.96147 | 2815 ft | 177 kts | 140° |
| 2026-05-04 15:15 | -19.65114 | -43.95287 | 3297 ft | 181 kts | 143° |
| 2026-05-04 15:16 | -19.66665 | -43.93850 | 4200 ft | 192 kts | 143° |
| 2026-05-04 15:16 | -19.67684 | -43.92894 | 4798 ft | 199 kts | 141° |
| 2026-05-04 15:16 | -19.69739 | -43.90766 | 5916 ft | 221 kts | 137° |
| 2026-05-04 15:17 | -19.70853 | -43.89556 | 6533 ft | 237 kts | 140° |
| 2026-05-04 15:17 | -19.73554 | -43.87204 | 7924 ft | 264 kts | 148° |
| 2026-05-04 15:17 | -19.75134 | -43.86116 | 8551 ft | 276 kts | 148° |
| 2026-05-04 15:18 | -19.76841 | -43.85120 | 9316 ft | 284 kts | 152° |
| 2026-05-04 15:18 | -19.78560 | -43.84031 | 10091 ft | 292 kts | 138° |
| 2026-05-04 15:18 | -19.79854 | -43.82609 | 10637 ft | 305 kts | 130° |
| 2026-05-04 15:19 | -19.80583 | -43.81704 | 10797 ft | 317 kts | 131° |
| 2026-05-04 15:20 | -19.82256 | -43.80047 | 11055 ft | 341 kts | 142° |
| 2026-05-04 15:20 | -19.84200 | -43.78527 | 11613 ft | 351 kts | 146° |
| 2026-05-04 15:20 | -19.86233 | -43.77063 | 12384 ft | 355 kts | 148° |
| 2026-05-04 15:20 | -19.88314 | -43.75625 | 13123 ft | 359 kts | 148° |
| 2026-05-04 15:21 | -19.90440 | -43.74209 | 13827 ft | 363 kts | 153° |
| 2026-05-04 15:21 | -19.92823 | -43.73346 | 14467 ft | 363 kts | 173° |
| 2026-05-04 15:21 | -19.97742 | -43.74228 | 15716 ft | 366 kts | 204° |
| 2026-05-04 15:22 | -20.00094 | -43.75282 | 16359 ft | 369 kts | 204° |
| 2026-05-04 15:22 | -20.02469 | -43.76364 | 16955 ft | 373 kts | 204° |
| 2026-05-04 15:22 | -20.07411 | -43.78245 | 18203 ft | 383 kts | 194° |
| 2026-05-04 15:23 | -20.10046 | -43.78728 | 18750 ft | 387 kts | 191° |
| 2026-05-04 15:23 | -20.12720 | -43.79178 | 19284 ft | 390 kts | 191° |
| 2026-05-04 15:23 | -20.15373 | -43.79632 | 19843 ft | 392 kts | 192° |
| 2026-05-04 15:23 | -20.18107 | -43.80103 | 20354 ft | 396 kts | 192° |
| 2026-05-04 15:24 | -20.23548 | -43.81040 | 21439 ft | 401 kts | 192° |
| 2026-05-04 15:24 | -20.29107 | -43.81996 | 22443 ft | 409 kts | 193° |
| 2026-05-04 15:25 | -20.31915 | -43.82479 | 22988 ft | 411 kts | 193° |
| 2026-05-04 15:25 | -20.34752 | -43.82968 | 23484 ft | 415 kts | 194° |
| 2026-05-04 15:25 | -20.37619 | -43.83462 | 23976 ft | 418 kts | 194° |
| 2026-05-04 15:26 | -20.43381 | -43.84455 | 24934 ft | 421 kts | 194° |
| 2026-05-04 15:26 | -20.46282 | -43.84956 | 25388 ft | 423 kts | 194° |
| 2026-05-04 15:26 | -20.52121 | -43.85965 | 26317 ft | 426 kts | 195° |
| 2026-05-04 15:27 | -20.55053 | -43.86481 | 26728 ft | 428 kts | 197° |
| 2026-05-04 15:27 | -20.60762 | -43.88153 | 27636 ft | 426 kts | 202° |
| 2026-05-04 15:28 | -20.66466 | -43.89956 | 28211 ft | 429 kts | 202° |
| 2026-05-04 15:28 | -20.69335 | -43.90861 | 28236 ft | 428 kts | 202° |
| 2026-05-04 15:29 | -20.77895 | -43.93566 | 28231 ft | 428 kts | 203° |
| 2026-05-04 15:30 | -20.97829 | -43.99884 | 28232 ft | 426 kts | 202° |
| 2026-05-04 15:31 | -21.06365 | -44.02571 | 28251 ft | 425 kts | 202° |
| 2026-05-04 15:32 | -21.20556 | -44.07053 | 28258 ft | 425 kts | 203° |
| 2026-05-04 15:34 | -21.34681 | -44.11522 | 28232 ft | 424 kts | 202° |
| 2026-05-04 15:34 | -21.42238 | -44.13916 | 28223 ft | 423 kts | 202° |
| 2026-05-04 15:35 | -21.49066 | -44.15298 | 28217 ft | 434 kts | 191° |
| 2026-05-04 15:35 | -21.51060 | -44.15470 | 28218 ft | 433 kts | 191° |
| 2026-05-04 15:36 | -21.60064 | -44.16293 | 28219 ft | 433 kts | 191° |
| 2026-05-04 15:36 | -21.66055 | -44.16844 | 28224 ft | 432 kts | 191° |
| 2026-05-04 15:37 | -21.72049 | -44.17394 | 28219 ft | 432 kts | 191° |
| 2026-05-04 15:37 | -21.78036 | -44.17943 | 28217 ft | 432 kts | 191° |
| 2026-05-04 15:38 | -21.84027 | -44.18493 | 28214 ft | 431 kts | 191° |
| 2026-05-04 15:38 | -21.87008 | -44.18766 | 27942 ft | 430 kts | 191° |
| 2026-05-04 15:38 | -21.90012 | -44.18933 | 27171 ft | 438 kts | 184° |
| 2026-05-04 15:39 | -21.93097 | -44.18583 | 26145 ft | 454 kts | 174° |
| 2026-05-04 15:39 | -21.96166 | -44.17618 | 25308 ft | 464 kts | 163° |
| 2026-05-04 15:39 | -22.02075 | -44.14927 | 24110 ft | 457 kts | 162° |
| 2026-05-04 15:40 | -22.04990 | -44.13614 | 23434 ft | 452 kts | 162° |
| 2026-05-04 15:40 | -22.07875 | -44.12316 | 22745 ft | 447 kts | 162° |
| 2026-05-04 15:40 | -22.10731 | -44.11030 | 21757 ft | 444 kts | 162° |
| 2026-05-04 15:40 | -22.13602 | -44.09739 | 20196 ft | 451 kts | 161° |
| 2026-05-04 15:41 | -22.16527 | -44.08425 | 18721 ft | 457 kts | 161° |
| 2026-05-04 15:41 | -22.19451 | -44.07107 | 17513 ft | 452 kts | 160° |
| 2026-05-04 15:41 | -22.22317 | -44.05809 | 16529 ft | 441 kts | 160° |
| 2026-05-04 15:41 | -22.25116 | -44.04541 | 15507 ft | 432 kts | 160° |
| 2026-05-04 15:42 | -22.27830 | -44.03314 | 14512 ft | 425 kts | 159° |
| 2026-05-04 15:42 | -22.30567 | -44.02075 | 13473 ft | 417 kts | 159° |
| 2026-05-04 15:42 | -22.33224 | -44.00872 | 12340 ft | 411 kts | 159° |
| 2026-05-04 15:42 | -22.35844 | -43.99685 | 11259 ft | 406 kts | 159° |
| 2026-05-04 15:43 | -22.38398 | -43.98526 | 10246 ft | 400 kts | 159° |
| 2026-05-04 15:43 | -22.40948 | -43.97370 | 9157 ft | 395 kts | 159° |
| 2026-05-04 15:43 | -22.43471 | -43.96227 | 8090 ft | 391 kts | 159° |
| 2026-05-04 15:43 | -22.45962 | -43.95099 | 7067 ft | 386 kts | 158° |
| 2026-05-04 15:44 | -22.48426 | -43.93981 | 6107 ft | 381 kts | 158° |
| 2026-05-04 15:44 | -22.50622 | -43.92982 | 5653 ft | 364 kts | 158° |
| 2026-05-04 15:51 | -22.52413 | -43.92167 | 5454 ft | 346 kts | 157° |
| 2026-05-04 15:52 | -22.54564 | -43.91189 | 5221 ft | 325 kts | 157° |
| 2026-05-04 15:52 | -22.56581 | -43.90270 | 5078 ft | 304 kts | 157° |
| 2026-05-04 15:52 | -22.58462 | -43.89413 | 5031 ft | 281 kts | 157° |
| 2026-05-04 15:52 | -22.60246 | -43.88601 | 5046 ft | 285 kts | 157° |
| 2026-05-04 15:53 | -22.62067 | -43.87769 | 5037 ft | 282 kts | 157° |
| 2026-05-04 15:53 | -22.63870 | -43.86946 | 5036 ft | 281 kts | 157° |
| 2026-05-04 15:53 | -22.65606 | -43.86156 | 5032 ft | 283 kts | 157° |
| 2026-05-04 15:53 | -22.67415 | -43.85333 | 5035 ft | 281 kts | 157° |
| 2026-05-04 15:54 | -22.69081 | -43.84571 | 5039 ft | 283 kts | 157° |
| 2026-05-04 15:54 | -22.70894 | -43.83743 | 5032 ft | 282 kts | 157° |
| 2026-05-04 15:54 | -22.72725 | -43.82908 | 5029 ft | 282 kts | 157° |
| 2026-05-04 15:54 | -22.74513 | -43.82091 | 5030 ft | 284 kts | 157° |
| 2026-05-04 15:55 | -22.76330 | -43.81263 | 5031 ft | 283 kts | 157° |
| 2026-05-04 15:55 | -22.78139 | -43.80438 | 5026 ft | 280 kts | 157° |
| 2026-05-04 15:55 | -22.79939 | -43.79618 | 5028 ft | 282 kts | 156° |
| 2026-05-04 15:55 | -22.81747 | -43.78792 | 5027 ft | 281 kts | 156° |
| 2026-05-04 15:56 | -22.83553 | -43.77966 | 5023 ft | 282 kts | 156° |
| 2026-05-04 15:56 | -22.85366 | -43.77138 | 5027 ft | 283 kts | 156° |
| 2026-05-04 15:56 | -22.87182 | -43.76312 | 5029 ft | 283 kts | 156° |
| 2026-05-04 15:56 | -22.88999 | -43.75487 | 5025 ft | 283 kts | 156° |
| 2026-05-04 15:57 | -22.90818 | -43.74660 | 5023 ft | 283 kts | 156° |
| 2026-05-04 15:57 | -22.92631 | -43.73835 | 5026 ft | 283 kts | 156° |
| 2026-05-04 15:57 | -22.94376 | -43.72873 | 5025 ft | 281 kts | 141° |
| 2026-05-04 15:57 | -22.95683 | -43.71335 | 5021 ft | 278 kts | 118° |
| 2026-05-04 15:58 | -22.96590 | -43.69479 | 5022 ft | 279 kts | 115° |
| 2026-05-04 15:58 | -22.97489 | -43.67615 | 5022 ft | 278 kts | 116° |
| 2026-05-04 15:58 | -22.98392 | -43.65760 | 5023 ft | 278 kts | 116° |
| 2026-05-04 15:58 | -22.98989 | -43.64536 | 5030 ft | 279 kts | 115° |
| 2026-05-04 15:59 | -22.99156 | -43.64166 | 5024 ft | 279 kts | 111° |
| 2026-05-04 15:59 | -22.99527 | -43.62260 | 5024 ft | 274 kts | 86° |
| 2026-05-04 15:59 | -22.99063 | -43.60266 | 5025 ft | 268 kts | 63° |
| 2026-05-04 15:59 | -22.98245 | -43.58436 | 5025 ft | 270 kts | 61° |
| 2026-05-04 16:00 | -22.97399 | -43.56624 | 5024 ft | 269 kts | 60° |
| 2026-05-04 16:00 | -22.96560 | -43.54809 | 5024 ft | 271 kts | 61° |
| 2026-05-04 16:00 | -22.95729 | -43.52977 | 5024 ft | 268 kts | 62° |
| 2026-05-04 16:00 | -22.94951 | -43.51225 | 5025 ft | 253 kts | 62° |
| 2026-05-04 16:01 | -22.94283 | -43.49688 | 5011 ft | 242 kts | 63° |
| 2026-05-04 16:01 | -22.93602 | -43.48068 | 4940 ft | 230 kts | 63° |
| 2026-05-04 16:01 | -22.92958 | -43.46527 | 4849 ft | 220 kts | 62° |
| 2026-05-04 16:01 | -22.92401 | -43.45196 | 4838 ft | 206 kts | 63° |
| 2026-05-04 16:02 | -22.91823 | -43.43814 | 4829 ft | 204 kts | 62° |
| 2026-05-04 16:02 | -22.91229 | -43.42417 | 4826 ft | 203 kts | 62° |
| 2026-05-04 16:02 | -22.90046 | -43.39638 | 4497 ft | 200 kts | 63° |
| 2026-05-04 16:03 | -22.89675 | -43.38759 | 4304 ft | 200 kts | 63° |
| 2026-05-04 16:03 | -22.89651 | -43.38705 | 4284 ft | 200 kts | 63° |
| 2026-05-04 16:03 | -22.89072 | -43.37344 | 4117 ft | 191 kts | 63° |
| 2026-05-04 16:04 | -22.88543 | -43.36092 | 4014 ft | 175 kts | 63° |
| 2026-05-04 16:04 | -22.87747 | -43.33811 | 3771 ft | 153 kts | 68° |
| 2026-05-04 16:04 | -22.87401 | -43.32729 | 3538 ft | 150 kts | 67° |
| 2026-05-04 16:05 | -22.87064 | -43.31688 | 3357 ft | 140 kts | 68° |
| 2026-05-04 16:05 | -22.86747 | -43.30707 | 3129 ft | 136 kts | 69° |
| 2026-05-04 16:05 | -22.86116 | -43.28769 | 2524 ft | 135 kts | 70° |
| 2026-05-04 16:06 | -22.85806 | -43.27810 | 2257 ft | 135 kts | 71° |
| 2026-05-04 16:06 | -22.85652 | -43.25217 | 1657 ft | 132 kts | 103° |
| 2026-05-04 16:07 | -22.85880 | -43.23899 | 1365 ft | 133 kts | 97° |
| 2026-05-04 16:07 | -22.86239 | -43.20961 | 795 ft | 130 kts | 97° |
| 2026-05-04 16:08 | -22.86370 | -43.19976 | 712 ft | 137 kts | 100° |
| 2026-05-04 16:08 | -22.87389 | -43.17240 | 331 ft | 128 kts | 146° |
| 2026-05-04 16:09 | -22.88983 | -43.16425 | 287 ft | 129 kts | 175° |
| 2026-05-04 16:09 | -22.90704 | -43.16307 | 63 ft | 124 kts | 175° |